createdAt,value
2022-10-02T00:00:18.225Z,100.00
2022-10-02T00:01:33.432Z,100.00
2022-10-02T00:02:40.872Z,100.00
2022-10-02T00:03:41.908Z,100.00
2022-10-02T00:04:44.571Z,100.00
2022-10-02T00:06:06.291Z,100.00
2022-10-02T00:07:07.300Z,100.00
2022-10-02T00:08:12.160Z,100.00
2022-10-02T00:09:34.626Z,100.00
2022-10-02T00:10:47.218Z,100.00
2022-10-02T00:11:49.166Z,100.00
2022-10-02T00:12:51.499Z,100.00
2022-10-02T00:13:50.278Z,100.00
2022-10-02T00:14:50.001Z,100.00
2022-10-02T00:15:48.193Z,100.00
2022-10-02T00:16:53.667Z,100.00
2022-10-02T00:17:55.109Z,100.00
2022-10-02T00:18:55.401Z,100.00
2022-10-02T00:19:56.173Z,100.00
2022-10-02T00:21:10.286Z,100.00
2022-10-02T00:22:21.763Z,100.00
2022-10-02T00:23:38.120Z,100.00
2022-10-02T00:24:59.238Z,100.00
2022-10-02T00:26:00.511Z,100.00
2022-10-02T00:27:05.388Z,100.00
2022-10-02T00:28:39.492Z,100.00
2022-10-02T00:29:55.013Z,100.00
2022-10-02T00:31:16.726Z,100.00
2022-10-02T00:32:22.621Z,100.00
2022-10-02T00:33:51.363Z,100.00
2022-10-02T00:35:35.990Z,100.00
2022-10-02T00:37:03.271Z,100.00
2022-10-02T00:38:06.131Z,100.00
2022-10-02T00:39:20.082Z,100.00
2022-10-02T00:40:44.702Z,100.00
2022-10-02T00:42:20.207Z,100.00
2022-10-02T00:43:25.940Z,100.00
2022-10-02T00:44:28.190Z,100.00
2022-10-02T00:45:24.943Z,100.00
2022-10-02T00:46:37.014Z,100.00
2022-10-02T00:48:10.235Z,100.00
2022-10-02T00:49:48.791Z,100.00
2022-10-02T00:51:20.476Z,100.00
2022-10-02T00:52:26.008Z,100.00
2022-10-02T00:53:47.092Z,100.00
2022-10-02T00:54:52.761Z,100.00
2022-10-02T00:55:52.246Z,100.00
2022-10-02T00:57:04.083Z,100.00
2022-10-02T00:58:03.831Z,100.00
2022-10-02T00:59:09.502Z,100.00
2022-10-02T01:00:16.002Z,100.00
2022-10-02T01:01:22.789Z,100.00
2022-10-02T01:02:31.768Z,100.00
2022-10-02T01:03:37.839Z,100.00
2022-10-02T01:04:38.011Z,100.00
2022-10-02T01:05:35.860Z,100.00
2022-10-02T01:06:32.607Z,100.00
2022-10-02T01:07:29.910Z,100.00
2022-10-02T01:08:27.933Z,100.00
2022-10-02T01:09:25.544Z,100.00
2022-10-02T01:10:28.206Z,100.00
2022-10-02T01:11:27.058Z,100.00
2022-10-02T01:12:24.379Z,100.00
2022-10-02T01:13:21.175Z,100.00
2022-10-02T01:14:18.027Z,100.00
2022-10-02T01:15:18.503Z,100.00
2022-10-02T01:16:16.763Z,100.00
2022-10-02T01:17:39.923Z,100.00
2022-10-02T01:18:36.909Z,100.00
2022-10-02T01:19:39.890Z,100.00
2022-10-02T01:20:42.296Z,100.00
2022-10-02T01:21:49.126Z,100.00
2022-10-02T01:23:12.480Z,100.00
2022-10-02T01:24:27.351Z,100.00
2022-10-02T01:25:24.158Z,100.00
2022-10-02T01:26:21.041Z,100.00
2022-10-02T01:27:18.570Z,100.00
2022-10-02T01:28:15.586Z,100.00
2022-10-02T01:29:12.399Z,100.00
2022-10-02T01:30:12.446Z,100.00
2022-10-02T01:31:14.684Z,100.00
2022-10-02T01:32:12.095Z,100.00
2022-10-02T01:33:10.980Z,100.00
2022-10-02T01:34:09.470Z,100.00
2022-10-02T01:35:07.161Z,100.00
2022-10-02T01:36:05.105Z,100.00
2022-10-02T01:37:03.020Z,100.00
2022-10-02T01:38:07.250Z,100.00
2022-10-02T01:39:04.026Z,100.00
2022-10-02T01:40:10.120Z,100.00
2022-10-02T01:41:09.970Z,100.00
2022-10-02T01:42:06.682Z,100.00
2022-10-02T01:43:09.871Z,100.00
2022-10-02T01:44:06.911Z,100.00
2022-10-02T01:45:08.027Z,100.00
2022-10-02T01:46:32.925Z,100.00
2022-10-02T01:48:01.381Z,100.00
2022-10-02T01:49:07.368Z,100.00
2022-10-02T01:50:16.039Z,100.00
2022-10-02T01:51:18.488Z,100.00
2022-10-02T01:52:42.674Z,100.00
2022-10-02T01:54:16.070Z,100.00
2022-10-02T01:55:15.746Z,100.00
2022-10-02T01:56:18.033Z,100.00
2022-10-02T01:57:39.314Z,100.00
2022-10-02T01:58:41.872Z,100.00
2022-10-02T02:00:09.083Z,100.00
2022-10-02T02:01:49.066Z,100.00
2022-10-02T02:02:49.337Z,100.00
2022-10-02T02:04:02.206Z,100.00
2022-10-02T02:05:05.868Z,100.00
2022-10-02T02:06:33.549Z,100.00
2022-10-02T02:07:39.840Z,100.00
2022-10-02T02:09:14.727Z,100.00
2022-10-02T02:10:34.008Z,100.00
2022-10-02T02:11:31.855Z,100.00
2022-10-02T02:12:48.828Z,100.00
2022-10-02T02:14:00.040Z,100.00
2022-10-02T02:15:11.498Z,100.00
2022-10-02T02:16:36.797Z,100.00
2022-10-02T02:17:36.488Z,100.00
2022-10-02T02:18:49.972Z,100.00
2022-10-02T02:20:02.039Z,100.00
2022-10-02T02:21:09.882Z,100.00
2022-10-02T02:22:23.882Z,100.00
2022-10-02T02:23:29.778Z,100.00
2022-10-02T02:24:42.721Z,100.00
2022-10-02T02:25:45.842Z,100.00
2022-10-02T02:26:47.063Z,100.00
2022-10-02T02:27:50.797Z,100.00
2022-10-02T02:29:00.865Z,100.00
2022-10-02T02:30:04.392Z,100.00
2022-10-02T02:31:04.439Z,100.00
2022-10-02T02:32:08.551Z,100.00
2022-10-02T02:33:17.014Z,100.00
2022-10-02T02:34:21.701Z,100.00
2022-10-02T02:35:29.900Z,100.00
2022-10-02T02:36:35.776Z,100.00
2022-10-02T02:37:39.133Z,100.00
2022-10-02T02:38:51.986Z,100.00
2022-10-02T02:39:57.682Z,100.00
2022-10-02T02:41:00.290Z,100.00
2022-10-02T02:42:04.334Z,100.00
2022-10-02T02:43:35.780Z,100.00
2022-10-02T02:44:50.286Z,100.00
2022-10-02T02:46:04.795Z,100.00
2022-10-02T02:47:12.758Z,100.00
2022-10-02T02:48:22.301Z,100.00
2022-10-02T02:49:19.287Z,100.00
2022-10-02T02:50:29.237Z,100.00
2022-10-02T02:51:37.962Z,100.00
2022-10-02T02:52:53.213Z,100.00
2022-10-02T02:54:07.026Z,100.00
2022-10-02T02:55:28.055Z,100.00
2022-10-02T02:56:29.387Z,100.00
2022-10-02T02:57:54.108Z,100.00
2022-10-02T02:58:57.802Z,100.00
2022-10-02T02:59:59.481Z,100.00
2022-10-02T03:00:56.462Z,100.00
2022-10-02T03:01:53.974Z,100.00
2022-10-02T03:02:54.440Z,100.00
2022-10-02T03:03:51.169Z,100.00
2022-10-02T03:04:47.871Z,100.00
2022-10-02T03:05:51.292Z,100.00
2022-10-02T03:06:55.463Z,100.00
2022-10-02T03:08:31.554Z,100.00
2022-10-02T03:09:33.414Z,100.00
2022-10-02T03:10:55.488Z,100.00
2022-10-02T03:12:04.091Z,100.00
2022-10-02T03:13:26.582Z,100.00
2022-10-02T03:14:44.999Z,100.00
2022-10-02T03:16:00.502Z,100.00
2022-10-02T03:17:15.586Z,100.00
2022-10-02T03:18:24.294Z,100.00
2022-10-02T03:19:44.107Z,100.00
2022-10-02T03:21:05.697Z,100.00
2022-10-02T03:22:41.386Z,100.00
2022-10-02T03:24:00.234Z,100.00
2022-10-02T03:24:59.535Z,100.00
2022-10-02T03:26:24.935Z,100.00
2022-10-02T03:27:40.819Z,100.00
2022-10-02T03:28:56.516Z,100.00
2022-10-02T03:30:08.674Z,100.00
2022-10-02T03:31:06.679Z,100.00
2022-10-02T03:32:08.341Z,100.00
2022-10-02T03:33:07.543Z,100.00
2022-10-02T03:34:05.749Z,100.00
2022-10-02T03:35:08.716Z,100.00
2022-10-02T03:36:05.826Z,100.00
2022-10-02T03:37:03.745Z,100.00
2022-10-02T03:38:05.991Z,100.00
2022-10-02T03:39:24.306Z,100.00
2022-10-02T03:40:24.348Z,100.00
2022-10-02T03:41:21.009Z,100.00
2022-10-02T03:42:24.753Z,100.00
2022-10-02T03:43:23.460Z,100.00
2022-10-02T03:44:20.280Z,100.00
2022-10-02T03:45:32.994Z,100.00
2022-10-02T03:46:34.440Z,100.00
2022-10-02T03:47:31.375Z,100.00
2022-10-02T03:48:28.078Z,100.00
2022-10-02T03:49:24.783Z,100.00
2022-10-02T03:50:22.062Z,100.00
2022-10-02T03:51:18.838Z,100.00
2022-10-02T03:52:18.455Z,100.00
2022-10-02T03:53:25.524Z,100.00
2022-10-02T03:54:23.461Z,100.00
2022-10-02T03:55:20.371Z,100.00
2022-10-02T03:56:47.000Z,100.00
2022-10-02T03:57:45.237Z,100.00
2022-10-02T03:58:48.641Z,100.00
2022-10-02T04:00:02.934Z,100.00
2022-10-02T04:00:59.602Z,100.00
2022-10-02T04:02:02.655Z,100.00
2022-10-02T04:03:05.763Z,100.00
2022-10-02T04:04:15.748Z,100.00
2022-10-02T04:05:41.454Z,100.00
2022-10-02T04:07:06.310Z,100.00
2022-10-02T04:08:15.965Z,100.00
2022-10-02T04:09:20.050Z,100.00
2022-10-02T04:10:27.185Z,100.00
2022-10-02T04:11:36.076Z,100.00
2022-10-02T04:12:42.320Z,100.00
2022-10-02T04:13:46.497Z,100.00
2022-10-02T04:15:09.434Z,100.00
2022-10-02T04:16:14.090Z,100.00
2022-10-02T04:17:30.481Z,100.00
2022-10-02T04:18:38.985Z,100.00
2022-10-02T04:19:52.962Z,100.00
2022-10-02T04:21:03.518Z,100.00
2022-10-02T04:22:15.531Z,100.00
2022-10-02T04:23:23.423Z,100.00
2022-10-02T04:24:31.130Z,100.00
2022-10-02T04:25:37.473Z,100.00
2022-10-02T04:26:41.477Z,100.00
2022-10-02T04:27:43.840Z,100.00
2022-10-02T04:28:48.138Z,100.00
2022-10-02T04:29:58.357Z,100.00
2022-10-02T04:30:55.658Z,100.00
2022-10-02T04:32:12.635Z,100.00
2022-10-02T04:33:13.789Z,100.00
2022-10-02T04:34:13.875Z,100.00
2022-10-02T04:36:00.329Z,100.00
2022-10-02T04:37:08.993Z,100.00
2022-10-02T04:38:42.427Z,100.00
2022-10-02T04:39:46.774Z,100.00
2022-10-02T04:41:03.546Z,100.00
2022-10-02T04:42:16.242Z,100.00
2022-10-02T04:43:42.979Z,100.00
2022-10-02T04:44:59.707Z,100.00
2022-10-02T04:46:38.173Z,100.00
2022-10-02T04:48:26.255Z,100.00
2022-10-02T04:49:27.825Z,100.00
2022-10-02T04:50:49.007Z,100.00
2022-10-02T04:52:06.571Z,100.00
2022-10-02T04:53:12.481Z,100.00
2022-10-02T04:54:39.466Z,100.00
2022-10-02T04:55:57.847Z,100.00
2022-10-02T04:57:24.091Z,100.00
2022-10-02T04:58:20.714Z,100.00
2022-10-02T04:59:29.262Z,100.00
2022-10-02T05:00:37.183Z,100.00
2022-10-02T05:01:58.497Z,100.00
2022-10-02T05:03:36.387Z,100.00
2022-10-02T05:05:10.596Z,100.00
2022-10-02T05:06:13.031Z,100.00
2022-10-02T05:07:38.870Z,100.00
2022-10-02T05:09:02.440Z,100.00
2022-10-02T05:10:11.071Z,100.00
2022-10-02T05:11:32.538Z,100.00
2022-10-02T05:12:35.207Z,100.00
2022-10-02T05:13:31.921Z,100.00
2022-10-02T05:14:40.797Z,100.00
2022-10-02T05:15:43.218Z,100.00
2022-10-02T05:17:11.950Z,100.00
2022-10-02T05:18:26.875Z,100.00
2022-10-02T05:19:38.736Z,100.00
2022-10-02T05:21:05.880Z,100.00
2022-10-02T05:22:15.113Z,100.00
2022-10-02T05:23:23.877Z,100.00
2022-10-02T05:24:27.927Z,100.00
2022-10-02T05:25:52.460Z,100.00
2022-10-02T05:27:03.428Z,100.00
2022-10-02T05:28:30.974Z,100.00
2022-10-02T05:29:53.016Z,100.00
2022-10-02T05:31:21.975Z,100.00
2022-10-02T05:32:46.318Z,100.00
2022-10-02T05:34:09.919Z,100.00
2022-10-02T05:35:15.207Z,100.00
2022-10-02T05:36:49.341Z,100.00
2022-10-02T05:38:07.223Z,100.00
2022-10-02T05:39:08.446Z,100.00
2022-10-02T05:40:25.232Z,100.00
2022-10-02T05:41:28.460Z,100.00
2022-10-02T05:42:38.188Z,100.00
2022-10-02T05:43:50.959Z,100.00
2022-10-02T05:45:01.229Z,100.00
2022-10-02T05:46:11.653Z,100.00
2022-10-02T05:47:28.907Z,100.00
2022-10-02T05:48:48.941Z,100.00
2022-10-02T05:49:50.554Z,100.00
2022-10-02T05:50:58.878Z,100.00
2022-10-02T05:52:37.993Z,100.00
2022-10-02T05:53:46.522Z,100.00
2022-10-02T05:55:13.551Z,100.00
2022-10-02T05:56:26.422Z,100.00
2022-10-02T05:57:54.860Z,100.00
2022-10-02T05:58:55.700Z,100.00
2022-10-02T06:00:16.981Z,100.00
2022-10-02T06:01:38.130Z,100.00
2022-10-02T06:02:38.989Z,100.00
2022-10-02T06:03:45.135Z,100.00
2022-10-02T06:04:52.765Z,100.00
2022-10-02T06:05:50.426Z,100.00
2022-10-02T06:06:54.357Z,100.00
2022-10-02T06:07:58.520Z,100.00
2022-10-02T06:09:20.109Z,100.00
2022-10-02T06:10:23.153Z,100.00
2022-10-02T06:11:41.303Z,100.00
2022-10-02T06:13:05.165Z,100.00
2022-10-02T06:14:24.246Z,100.00
2022-10-02T06:15:33.303Z,100.00
2022-10-02T06:16:36.184Z,100.00
2022-10-02T06:17:42.807Z,100.00
2022-10-02T06:18:46.714Z,100.00
2022-10-02T06:20:03.556Z,100.00
2022-10-02T06:21:14.855Z,100.00
2022-10-02T06:22:23.306Z,100.00
2022-10-02T06:23:50.757Z,100.00
2022-10-02T06:25:02.227Z,100.00
2022-10-02T06:26:10.611Z,100.00
2022-10-02T06:27:39.115Z,100.00
2022-10-02T06:28:41.599Z,100.00
2022-10-02T06:29:53.350Z,100.00
2022-10-02T06:31:04.886Z,100.00
2022-10-02T06:32:18.171Z,100.00
2022-10-02T06:33:26.360Z,100.00
2022-10-02T06:34:23.487Z,100.00
2022-10-02T06:35:51.607Z,100.00
2022-10-02T06:37:36.546Z,100.00
2022-10-02T06:38:54.954Z,100.00
2022-10-02T06:40:18.791Z,100.00
2022-10-02T06:41:20.569Z,100.00
2022-10-02T06:42:52.769Z,100.00
2022-10-02T06:44:08.126Z,100.00
2022-10-02T06:45:29.999Z,100.00
2022-10-02T06:46:47.347Z,100.00
2022-10-02T06:47:58.587Z,100.00
2022-10-02T06:49:27.748Z,100.00
2022-10-02T06:50:54.021Z,100.00
2022-10-02T06:52:21.312Z,100.00
2022-10-02T06:53:56.586Z,100.00
2022-10-02T06:55:11.879Z,100.00
2022-10-02T06:56:37.380Z,100.00
2022-10-02T06:57:43.027Z,100.00
2022-10-02T06:59:07.504Z,100.00
2022-10-02T07:00:18.314Z,100.00
2022-10-02T07:01:34.025Z,100.00
2022-10-02T07:02:51.653Z,100.00
2022-10-02T07:04:04.756Z,100.00
2022-10-02T07:05:20.126Z,100.00
2022-10-02T07:06:35.007Z,100.00
2022-10-02T07:08:04.671Z,100.00
2022-10-02T07:09:30.511Z,100.00
2022-10-02T07:10:44.783Z,100.00
2022-10-02T07:12:19.975Z,100.00
2022-10-02T07:13:48.261Z,100.00
2022-10-02T07:15:03.060Z,100.00
2022-10-02T07:16:09.345Z,100.00
2022-10-02T07:17:34.018Z,100.00
2022-10-02T07:18:33.409Z,100.00
2022-10-02T07:19:58.102Z,100.00
2022-10-02T07:21:25.467Z,100.00
2022-10-02T07:22:50.563Z,100.00
2022-10-02T07:24:39.369Z,100.00
2022-10-02T07:25:58.257Z,100.00
2022-10-02T07:27:23.648Z,100.00
2022-10-02T07:28:33.541Z,100.00
2022-10-02T07:29:56.522Z,100.00
2022-10-02T07:31:24.225Z,100.00
2022-10-02T07:32:43.683Z,100.00
2022-10-02T07:34:00.479Z,100.00
2022-10-02T07:35:19.627Z,100.00
2022-10-02T07:36:26.211Z,100.00
2022-10-02T07:37:46.072Z,100.00
2022-10-02T07:39:03.103Z,100.00
2022-10-02T07:40:21.712Z,100.00
2022-10-02T07:41:24.128Z,100.00
2022-10-02T07:42:58.844Z,100.00
2022-10-02T07:43:55.467Z,100.00
2022-10-02T07:45:26.262Z,100.00
2022-10-02T07:47:04.470Z,100.00
2022-10-02T07:48:12.915Z,100.00
2022-10-02T07:49:21.810Z,100.00
2022-10-02T07:50:41.254Z,100.00
2022-10-02T07:52:03.503Z,100.00
2022-10-02T07:53:18.588Z,100.00
2022-10-02T07:54:33.631Z,100.00
2022-10-02T07:55:31.428Z,100.00
2022-10-02T07:56:29.925Z,100.00
2022-10-02T07:57:52.399Z,100.00
2022-10-02T07:59:04.375Z,100.00
2022-10-02T08:00:24.032Z,100.00
2022-10-02T08:01:31.495Z,100.00
2022-10-02T08:02:44.894Z,100.00
2022-10-02T08:03:52.540Z,100.00
2022-10-02T08:04:49.553Z,100.00
2022-10-02T08:05:50.944Z,100.00
2022-10-02T08:06:53.447Z,100.00
2022-10-02T08:07:54.940Z,100.00
2022-10-02T08:09:14.396Z,100.00
2022-10-02T08:10:16.448Z,100.00
2022-10-02T08:11:23.930Z,100.00
2022-10-02T08:12:46.834Z,100.00
2022-10-02T08:13:56.119Z,100.00
2022-10-02T08:14:55.824Z,100.00
2022-10-02T08:15:56.402Z,100.00
2022-10-02T08:16:57.287Z,100.00
2022-10-02T08:18:22.885Z,100.00
2022-10-02T08:19:22.747Z,100.00
2022-10-02T08:20:31.516Z,100.00
2022-10-02T08:21:35.664Z,100.00
2022-10-02T08:22:45.604Z,100.00
2022-10-02T08:23:48.423Z,100.00
2022-10-02T08:24:57.671Z,100.00
2022-10-02T08:26:06.944Z,100.00
2022-10-02T08:27:18.229Z,100.00
2022-10-02T08:28:52.197Z,100.00
2022-10-02T08:29:59.590Z,100.00
2022-10-02T08:30:58.417Z,100.00
2022-10-02T08:31:56.549Z,100.00
2022-10-02T08:32:54.686Z,100.00
2022-10-02T08:33:51.958Z,100.00
2022-10-02T08:34:49.177Z,100.00
2022-10-02T08:36:16.763Z,100.00
2022-10-02T08:37:58.188Z,100.00
2022-10-02T08:39:21.678Z,100.00
2022-10-02T08:40:54.519Z,100.00
2022-10-02T08:42:27.605Z,98.52
2022-10-02T08:43:35.477Z,98.10
2022-10-02T08:45:05.739Z,97.53
2022-10-02T08:46:33.143Z,100.00
2022-10-02T08:47:35.607Z,98.92
2022-10-02T08:49:06.519Z,98.34
2022-10-02T08:50:31.567Z,96.73
2022-10-02T08:51:29.750Z,97.21
2022-10-02T08:52:38.326Z,97.32
2022-10-02T08:53:57.267Z,95.62
2022-10-02T08:55:03.002Z,95.48
2022-10-02T08:56:14.379Z,94.37
2022-10-02T08:57:34.362Z,93.52
2022-10-02T08:58:30.969Z,94.79
2022-10-02T08:59:49.585Z,94.78
2022-10-02T09:00:49.091Z,96.80
2022-10-02T09:02:00.077Z,94.88
2022-10-02T09:03:05.890Z,93.21
2022-10-02T09:04:28.298Z,94.05
2022-10-02T09:05:52.390Z,92.95
2022-10-02T09:07:39.166Z,92.35
2022-10-02T09:09:03.166Z,91.49
2022-10-02T09:09:59.942Z,91.76
2022-10-02T09:11:21.910Z,90.02
2022-10-02T09:12:33.488Z,89.65
2022-10-02T09:13:40.433Z,89.49
2022-10-02T09:14:43.411Z,91.14
2022-10-02T09:15:54.290Z,92.64
2022-10-02T09:17:18.730Z,92.21
2022-10-02T09:18:18.622Z,88.91
2022-10-02T09:19:33.216Z,89.94
2022-10-02T09:20:43.728Z,89.33
2022-10-02T09:22:00.442Z,91.37
2022-10-02T09:23:21.830Z,89.63
2022-10-02T09:24:56.167Z,86.18
2022-10-02T09:25:53.925Z,85.02
2022-10-02T09:27:42.849Z,83.34
2022-10-02T09:28:39.457Z,81.83
2022-10-02T09:29:50.116Z,81.32
2022-10-02T09:31:19.156Z,82.27
2022-10-02T09:32:41.122Z,83.90
2022-10-02T09:34:12.795Z,84.17
2022-10-02T09:35:31.094Z,83.93
2022-10-02T09:36:46.921Z,83.67
2022-10-02T09:37:58.634Z,86.24
2022-10-02T09:39:32.755Z,85.90
2022-10-02T09:40:50.843Z,86.06
2022-10-02T09:42:28.866Z,85.43
2022-10-02T09:44:03.501Z,82.06
2022-10-02T09:45:01.708Z,83.47
2022-10-02T09:46:26.957Z,82.41
2022-10-02T09:47:37.391Z,81.74
2022-10-02T09:48:50.850Z,80.74
2022-10-02T09:49:47.519Z,82.96
2022-10-02T09:50:59.510Z,83.62
2022-10-02T09:52:17.663Z,83.41
2022-10-02T09:53:35.879Z,83.57
2022-10-02T09:54:49.770Z,83.69
2022-10-02T09:56:23.265Z,80.62
2022-10-02T09:57:31.791Z,80.94
2022-10-02T09:59:01.863Z,81.20
2022-10-02T10:00:05.143Z,80.78
2022-10-02T10:01:20.551Z,79.71
2022-10-02T10:02:48.637Z,80.18
2022-10-02T10:03:45.323Z,79.72
2022-10-02T10:05:05.708Z,82.21
2022-10-02T10:06:21.867Z,83.92
2022-10-02T10:07:30.737Z,83.63
2022-10-02T10:08:29.979Z,83.89
2022-10-02T10:09:36.475Z,83.42
2022-10-02T10:10:55.294Z,84.31
2022-10-02T10:12:16.936Z,81.28
2022-10-02T10:13:35.367Z,82.59
2022-10-02T10:14:50.631Z,83.50
2022-10-02T10:15:53.046Z,85.70
2022-10-02T10:17:30.725Z,85.49
2022-10-02T10:19:04.837Z,82.94
2022-10-02T10:20:16.697Z,82.05
2022-10-02T10:22:02.800Z,79.28
2022-10-02T10:23:15.230Z,78.63
2022-10-02T10:24:20.920Z,79.32
2022-10-02T10:25:20.941Z,77.93
2022-10-02T10:26:43.948Z,79.37
2022-10-02T10:27:55.844Z,79.23
2022-10-02T10:29:25.068Z,78.79
2022-10-02T10:30:31.089Z,79.14
2022-10-02T10:31:40.390Z,78.52
2022-10-02T10:33:00.265Z,77.04
2022-10-02T10:34:35.785Z,76.93
2022-10-02T10:35:52.514Z,78.61
2022-10-02T10:37:13.660Z,77.25
2022-10-02T10:38:50.829Z,75.17
2022-10-02T10:40:04.092Z,76.46
2022-10-02T10:41:19.438Z,75.29
2022-10-02T10:43:06.963Z,74.21
2022-10-02T10:44:13.157Z,74.78
2022-10-02T10:45:57.089Z,74.91
2022-10-02T10:46:59.597Z,73.58
2022-10-02T10:48:14.630Z,72.53
2022-10-02T10:49:44.394Z,69.25
2022-10-02T10:51:14.302Z,68.41
2022-10-02T10:52:30.922Z,68.27
2022-10-02T10:53:40.215Z,69.06
2022-10-02T10:54:48.573Z,69.11
2022-10-02T10:56:09.720Z,67.94
2022-10-02T10:57:32.815Z,68.45
2022-10-02T10:59:07.874Z,69.67
2022-10-02T11:00:43.274Z,69.55
2022-10-02T11:02:05.816Z,72.13
2022-10-02T11:03:30.126Z,73.35
2022-10-02T11:04:58.416Z,71.56
2022-10-02T11:06:32.513Z,72.53
2022-10-02T11:08:06.215Z,71.72
2022-10-02T11:09:17.766Z,70.95
2022-10-02T11:10:29.302Z,69.35
2022-10-02T11:11:36.143Z,68.43
2022-10-02T11:12:39.215Z,69.46
2022-10-02T11:14:08.600Z,69.14
2022-10-02T11:15:23.632Z,70.52
2022-10-02T11:16:23.233Z,71.80
2022-10-02T11:17:39.821Z,70.35
2022-10-02T11:19:03.026Z,69.15
2022-10-02T11:20:19.084Z,69.30
2022-10-02T11:21:51.848Z,69.33
2022-10-02T11:23:06.890Z,69.31
2022-10-02T11:24:38.815Z,70.19
2022-10-02T11:26:08.779Z,69.94
2022-10-02T11:27:42.930Z,68.28
2022-10-02T11:29:06.879Z,68.47
2022-10-02T11:30:41.670Z,68.45
2022-10-02T11:31:50.666Z,67.44
2022-10-02T11:33:23.923Z,67.77
2022-10-02T11:34:29.358Z,69.11
2022-10-02T11:35:44.480Z,70.84
2022-10-02T11:37:31.817Z,70.96
2022-10-02T11:38:50.519Z,71.29
2022-10-02T11:40:02.319Z,71.73
2022-10-02T11:41:04.993Z,70.88
2022-10-02T11:42:26.278Z,72.54
2022-10-02T11:43:52.839Z,71.27
2022-10-02T11:44:58.390Z,70.80
2022-10-02T11:46:13.646Z,68.84
2022-10-02T11:47:34.802Z,66.79
2022-10-02T11:48:34.723Z,67.41
2022-10-02T11:50:05.190Z,67.96
2022-10-02T11:51:20.779Z,68.89
2022-10-02T11:52:20.156Z,68.54
2022-10-02T11:53:58.174Z,69.11
2022-10-02T11:55:02.732Z,69.81
2022-10-02T11:56:31.147Z,69.96
2022-10-02T11:57:35.077Z,69.94
2022-10-02T11:58:45.433Z,68.83
2022-10-02T12:00:17.006Z,70.54
2022-10-02T12:01:32.197Z,70.63
2022-10-02T12:02:38.815Z,71.97
2022-10-02T12:03:53.474Z,72.30
2022-10-02T12:05:21.757Z,69.43
2022-10-02T12:06:46.901Z,69.84
2022-10-02T12:08:15.020Z,69.45
2022-10-02T12:09:48.387Z,69.38
2022-10-02T12:10:58.980Z,71.74
2022-10-02T12:12:12.721Z,69.68
2022-10-02T12:13:15.870Z,69.60
2022-10-02T12:14:18.369Z,70.80
2022-10-02T12:16:07.832Z,70.25
2022-10-02T12:17:07.611Z,71.17
2022-10-02T12:18:22.264Z,71.46
2022-10-02T12:20:01.340Z,71.48
2022-10-02T12:21:52.283Z,72.82
2022-10-02T12:23:40.563Z,71.19
2022-10-02T12:25:17.482Z,70.63
2022-10-02T12:26:43.779Z,69.77
2022-10-02T12:27:46.202Z,69.01
2022-10-02T12:29:03.358Z,71.63
2022-10-02T12:30:45.375Z,73.02
2022-10-02T12:32:08.313Z,71.13
2022-10-02T12:33:17.081Z,71.33
2022-10-02T12:34:32.148Z,71.68
2022-10-02T12:35:29.608Z,70.36
2022-10-02T12:36:56.366Z,71.89
2022-10-02T12:38:01.953Z,71.07
2022-10-02T12:39:12.559Z,70.30
2022-10-02T12:40:27.501Z,70.88
2022-10-02T12:41:56.149Z,69.08
2022-10-02T12:43:01.755Z,68.79
2022-10-02T12:44:33.594Z,67.85
2022-10-02T12:45:44.408Z,67.00
2022-10-02T12:46:47.064Z,66.73
2022-10-02T12:47:52.687Z,68.19
2022-10-02T12:48:54.918Z,67.06
2022-10-02T12:49:54.399Z,66.58
2022-10-02T12:50:51.725Z,66.33
2022-10-02T12:52:13.228Z,66.67
2022-10-02T12:53:44.980Z,66.83
2022-10-02T12:55:03.095Z,67.26
2022-10-02T12:56:21.132Z,67.28
2022-10-02T12:57:53.205Z,68.64
2022-10-02T12:59:28.885Z,69.05
2022-10-02T13:00:29.271Z,69.77
2022-10-02T13:01:41.667Z,70.63
2022-10-02T13:03:06.138Z,69.60
2022-10-02T13:04:05.863Z,69.55
2022-10-02T13:05:44.614Z,69.28
2022-10-02T13:06:56.809Z,70.65
2022-10-02T13:08:18.709Z,70.73
2022-10-02T13:09:30.222Z,69.85
2022-10-02T13:10:37.956Z,68.54
2022-10-02T13:12:26.943Z,69.53
2022-10-02T13:13:36.119Z,68.80
2022-10-02T13:14:53.899Z,68.47
2022-10-02T13:16:24.371Z,69.17
2022-10-02T13:17:38.811Z,68.67
2022-10-02T13:19:04.204Z,68.07
2022-10-02T13:20:16.041Z,70.20
2022-10-02T13:21:35.743Z,70.73
2022-10-02T13:22:46.325Z,71.24
2022-10-02T13:24:19.751Z,68.68
2022-10-02T13:25:37.995Z,67.71
2022-10-02T13:26:44.809Z,68.14
2022-10-02T13:27:49.782Z,67.34
2022-10-02T13:29:09.843Z,66.98
2022-10-02T13:30:20.898Z,68.28
2022-10-02T13:31:44.034Z,68.56
2022-10-02T13:33:00.203Z,69.97
2022-10-02T13:33:56.824Z,70.48
2022-10-02T13:35:05.807Z,68.83
2022-10-02T13:36:05.651Z,68.63
2022-10-02T13:37:15.438Z,66.73
2022-10-02T13:38:54.181Z,66.20
2022-10-02T13:40:13.188Z,66.47
2022-10-02T13:41:18.574Z,65.54
2022-10-02T13:42:37.120Z,65.61
2022-10-02T13:43:34.653Z,65.40
2022-10-02T13:44:55.699Z,65.32
2022-10-02T13:46:19.618Z,66.28
2022-10-02T13:47:54.636Z,66.75
2022-10-02T13:49:18.117Z,64.64
2022-10-02T13:50:41.295Z,65.02
2022-10-02T13:52:09.950Z,65.90
2022-10-02T13:53:12.646Z,66.46
2022-10-02T13:54:27.595Z,66.41
2022-10-02T13:55:42.215Z,65.43
2022-10-02T13:56:50.540Z,65.25
2022-10-02T13:58:16.331Z,65.55
2022-10-02T13:59:34.814Z,64.30
2022-10-02T14:00:37.648Z,64.68
2022-10-02T14:02:15.173Z,64.79
2022-10-02T14:03:27.216Z,64.17
2022-10-02T14:04:37.684Z,64.51
2022-10-02T14:05:49.590Z,66.91
2022-10-02T14:06:55.139Z,66.42
2022-10-02T14:08:03.877Z,65.16
2022-10-02T14:09:09.529Z,66.95
2022-10-02T14:10:12.202Z,66.72
2022-10-02T14:11:24.090Z,66.31
2022-10-02T14:12:32.793Z,65.45
2022-10-02T14:13:50.085Z,67.89
2022-10-02T14:15:13.979Z,66.93
2022-10-02T14:16:34.123Z,65.52
2022-10-02T14:17:39.484Z,65.15
2022-10-02T14:18:38.998Z,65.55
2022-10-02T14:19:52.501Z,66.00
2022-10-02T14:21:10.631Z,65.98
2022-10-02T14:22:28.571Z,65.44
2022-10-02T14:23:44.034Z,65.66
2022-10-02T14:25:05.602Z,66.37
2022-10-02T14:26:15.510Z,65.51
2022-10-02T14:27:44.468Z,64.52
2022-10-02T14:29:11.986Z,65.16
2022-10-02T14:30:19.349Z,63.00
2022-10-02T14:31:22.489Z,63.98
2022-10-02T14:32:44.075Z,64.31
2022-10-02T14:34:18.231Z,63.64
2022-10-02T14:35:20.879Z,62.98
2022-10-02T14:36:51.609Z,62.87
2022-10-02T14:37:51.268Z,63.87
2022-10-02T14:39:16.836Z,62.28
2022-10-02T14:40:17.721Z,62.28
2022-10-02T14:41:14.356Z,63.04
2022-10-02T14:42:22.088Z,61.96
2022-10-02T14:43:46.738Z,62.38
2022-10-02T14:44:49.064Z,61.33
2022-10-02T14:46:02.976Z,61.79
2022-10-02T14:47:12.014Z,62.35
2022-10-02T14:48:29.694Z,62.55
2022-10-02T14:49:52.395Z,63.38
2022-10-02T14:51:16.958Z,64.26
2022-10-02T14:52:43.590Z,63.48
2022-10-02T14:53:49.463Z,63.46
2022-10-02T14:55:10.895Z,63.46
2022-10-02T14:56:16.644Z,62.69
2022-10-02T14:57:43.586Z,63.25
2022-10-02T14:58:58.547Z,64.50
2022-10-02T15:00:18.914Z,65.04
2022-10-02T15:01:24.200Z,65.33
2022-10-02T15:02:20.855Z,65.40
2022-10-02T15:03:17.482Z,64.49
2022-10-02T15:04:49.590Z,63.56
2022-10-02T15:06:05.167Z,64.23
2022-10-02T15:07:10.712Z,63.54
2022-10-02T15:08:17.822Z,63.72
2022-10-02T15:09:24.161Z,63.65
2022-10-02T15:10:38.465Z,63.14
2022-10-02T15:11:35.744Z,63.49
2022-10-02T15:12:47.490Z,63.78
2022-10-02T15:13:52.678Z,63.06
2022-10-02T15:15:17.177Z,62.84
2022-10-02T15:16:59.736Z,63.92
2022-10-02T15:18:23.873Z,63.56
2022-10-02T15:19:35.211Z,64.12
2022-10-02T15:20:55.191Z,65.23
2022-10-02T15:22:03.779Z,67.03
2022-10-02T15:23:04.016Z,67.78
2022-10-02T15:24:39.618Z,66.62
2022-10-02T15:25:39.154Z,65.89
2022-10-02T15:26:47.937Z,65.44
2022-10-02T15:28:24.132Z,66.26
2022-10-02T15:29:53.612Z,68.30
2022-10-02T15:31:00.057Z,66.84
2022-10-02T15:32:15.074Z,68.56
2022-10-02T15:33:22.397Z,68.75